createdAt,value
2022-12-14T00:02:18.196Z,-4.78
2022-12-14T00:04:46.875Z,-4.77
2022-12-14T00:07:15.644Z,-4.79
2022-12-14T00:09:44.217Z,-4.81
2022-12-14T00:12:12.754Z,-4.78
2022-12-14T00:14:42.117Z,-4.76
2022-12-14T00:17:10.887Z,-4.74
2022-12-14T00:19:41.136Z,-4.76
2022-12-14T00:22:09.765Z,-4.77
2022-12-14T00:24:38.495Z,-4.76
2022-12-14T00:27:07.046Z,-4.79
2022-12-14T00:29:35.682Z,-4.81
2022-12-14T00:32:04.427Z,-4.83
2022-12-14T00:34:33.264Z,-4.81
2022-12-14T00:37:03.373Z,-4.84
2022-12-14T00:39:32.055Z,-4.85
2022-12-14T00:42:00.575Z,-4.86
2022-12-14T00:44:29.204Z,-4.83
2022-12-14T00:46:57.954Z,-4.79
2022-12-14T00:49:26.702Z,-4.82
2022-12-14T00:51:55.234Z,-4.88
2022-12-14T00:54:25.476Z,-4.88
2022-12-14T00:56:54.003Z,-4.86
2022-12-14T00:59:27.114Z,-4.91
2022-12-14T01:01:58.548Z,-4.97
2022-12-14T01:04:27.303Z,-4.95
2022-12-14T01:06:56.634Z,-4.95
2022-12-14T01:09:27.557Z,-4.95
2022-12-14T01:11:56.285Z,-4.95
2022-12-14T01:14:24.887Z,-4.92
2022-12-14T01:16:53.525Z,-4.94
2022-12-14T01:19:22.064Z,-4.91
2022-12-14T01:21:50.643Z,-4.92
2022-12-14T01:24:19.263Z,-4.91
2022-12-14T01:26:49.213Z,-4.92
2022-12-14T01:29:17.907Z,-4.92
2022-12-14T01:31:48.701Z,-4.92
2022-12-14T01:34:18.244Z,-4.93
2022-12-14T01:36:46.914Z,-4.98
2022-12-14T01:39:17.112Z,-4.98
2022-12-14T01:41:49.656Z,-4.96
2022-12-14T01:44:40.506Z,-4.98
2022-12-14T01:47:18.782Z,-4.97
2022-12-14T01:49:53.938Z,-4.92
2022-12-14T01:52:27.264Z,-4.92
2022-12-14T01:55:00.234Z,-4.93
2022-12-14T01:57:32.127Z,-4.88
2022-12-14T02:00:07.192Z,-4.88
2022-12-14T02:02:39.872Z,-4.84
2022-12-14T02:05:11.122Z,-4.85
2022-12-14T02:07:40.945Z,-4.83
2022-12-14T02:10:11.184Z,-4.84
2022-12-14T02:12:45.293Z,-4.83
2022-12-14T02:15:14.733Z,-4.79
2022-12-14T02:17:46.605Z,-4.74
2022-12-14T02:20:17.325Z,-4.71
2022-12-14T02:23:10.845Z,-4.63
2022-12-14T02:26:13.365Z,-4.60
2022-12-14T02:29:17.689Z,-4.58
2022-12-14T02:31:58.413Z,-4.53
2022-12-14T02:34:40.514Z,-4.51
2022-12-14T02:37:15.511Z,-4.47
2022-12-14T02:39:57.468Z,-4.44
2022-12-14T02:42:40.694Z,-4.40
2022-12-14T02:45:14.004Z,-4.33
2022-12-14T02:47:54.687Z,-4.37
2022-12-14T02:50:31.252Z,-4.32
2022-12-14T02:53:09.364Z,-4.27
2022-12-14T02:55:42.372Z,-4.17
2022-12-14T02:58:17.784Z,-4.11
2022-12-14T03:00:46.996Z,-4.15
2022-12-14T03:03:17.238Z,-4.13
2022-12-14T03:05:56.915Z,-4.07
2022-12-14T03:08:27.486Z,-4.01
2022-12-14T03:10:59.837Z,-4.01
2022-12-14T03:13:34.454Z,-4.00
2022-12-14T03:16:11.166Z,-3.91
2022-12-14T03:18:46.123Z,-3.94
2022-12-14T03:21:18.765Z,-3.95
2022-12-14T03:23:50.928Z,-3.93
2022-12-14T03:26:26.536Z,-3.91
2022-12-14T03:29:01.166Z,-3.86
2022-12-14T03:31:36.259Z,-3.82
2022-12-14T03:34:13.569Z,-3.76
2022-12-14T03:36:45.705Z,-3.72
2022-12-14T03:39:20.095Z,-3.70
2022-12-14T03:41:58.682Z,-3.72
2022-12-14T03:44:48.993Z,-3.67
2022-12-14T03:47:35.086Z,-3.60
2022-12-14T03:50:10.665Z,-3.58
2022-12-14T03:52:44.256Z,-3.54
2022-12-14T03:55:23.735Z,-3.51
2022-12-14T03:58:11.538Z,-3.50
2022-12-14T04:00:50.509Z,-3.49
2022-12-14T04:03:28.211Z,-3.46
2022-12-14T04:06:02.587Z,-3.44
2022-12-14T04:08:40.343Z,-3.41
2022-12-14T04:11:25.547Z,-3.43
2022-12-14T04:14:10.716Z,-3.35
2022-12-14T04:16:54.142Z,-3.31
2022-12-14T04:19:30.484Z,-3.31
2022-12-14T04:22:05.976Z,-3.27
2022-12-14T04:24:50.192Z,-3.22
2022-12-14T04:27:24.303Z,-3.23
2022-12-14T04:29:58.509Z,-3.33
2022-12-14T04:32:32.915Z,-3.29
2022-12-14T04:35:08.248Z,-3.29
2022-12-14T04:37:41.676Z,-3.23
2022-12-14T04:40:15.759Z,-3.18
2022-12-14T04:42:51.004Z,-3.20
2022-12-14T04:45:23.847Z,-3.18
2022-12-14T04:47:59.007Z,-3.17
2022-12-14T04:50:32.303Z,-3.14
2022-12-14T04:53:09.479Z,-3.12
2022-12-14T04:55:42.125Z,-3.14
2022-12-14T04:58:16.235Z,-3.10
2022-12-14T05:00:59.818Z,-3.06
2022-12-14T05:03:33.412Z,-3.05
2022-12-14T05:06:11.905Z,-2.97
2022-12-14T05:09:08.694Z,-2.93
2022-12-14T05:11:53.510Z,-2.93
2022-12-14T05:14:33.234Z,-2.92
2022-12-14T05:17:08.853Z,-2.90
2022-12-14T05:19:39.284Z,-2.89
2022-12-14T05:22:09.846Z,-2.87
2022-12-14T05:24:39.955Z,-2.90
2022-12-14T05:27:09.454Z,-2.89
2022-12-14T05:29:37.944Z,-2.87
2022-12-14T05:32:06.874Z,-2.83
2022-12-14T05:34:35.964Z,-2.77
2022-12-14T05:37:04.584Z,-2.73
2022-12-14T05:39:33.177Z,-2.72
2022-12-14T05:42:03.206Z,-2.68
2022-12-14T05:44:31.809Z,-2.66
2022-12-14T05:47:00.314Z,-2.64
2022-12-14T05:49:28.926Z,-2.64
2022-12-14T05:51:58.014Z,-2.64
2022-12-14T05:54:26.565Z,-2.63
2022-12-14T05:56:55.131Z,-2.59
2022-12-14T05:59:25.373Z,-2.57
2022-12-14T06:01:54.108Z,-2.55
2022-12-14T06:04:22.835Z,-2.51
2022-12-14T06:06:51.814Z,-2.52
2022-12-14T06:09:20.905Z,-2.50
2022-12-14T06:11:50.499Z,-2.48
2022-12-14T06:14:19.014Z,-2.45
2022-12-14T06:16:49.129Z,-2.40
2022-12-14T06:19:17.948Z,-2.41
2022-12-14T06:21:46.486Z,-2.40
2022-12-14T06:24:15.553Z,-2.44
2022-12-14T06:26:44.289Z,-2.35
2022-12-14T06:29:16.945Z,-2.30
2022-12-14T06:31:48.977Z,-2.25
2022-12-14T06:34:24.830Z,-2.19
2022-12-14T06:36:56.837Z,-2.12
2022-12-14T06:39:25.356Z,-2.06
2022-12-14T06:41:54.057Z,-2.02
2022-12-14T06:44:22.778Z,-1.98
2022-12-14T06:46:51.528Z,-1.95
2022-12-14T06:49:21.995Z,-1.93
2022-12-14T06:51:51.080Z,-1.89
2022-12-14T06:54:20.961Z,-1.85
2022-12-14T06:56:49.767Z,-1.83
2022-12-14T06:59:18.744Z,-1.77
2022-12-14T07:04:26.281Z,-1.67
2022-12-14T07:06:54.948Z,-1.63
2022-12-14T07:09:23.537Z,-1.60
2022-12-14T07:11:52.537Z,-1.57
2022-12-14T07:14:21.128Z,-1.53
2022-12-14T07:16:50.549Z,-1.51
2022-12-14T07:19:19.589Z,-1.50
2022-12-14T07:21:51.094Z,-1.45
2022-12-14T07:24:19.908Z,-1.43
2022-12-14T07:26:48.568Z,-1.40
2022-12-14T07:29:17.389Z,-1.36
2022-12-14T07:31:49.320Z,-1.34
2022-12-14T07:34:18.742Z,-1.28
2022-12-14T07:36:50.439Z,-1.24
2022-12-14T07:39:22.006Z,-1.22
2022-12-14T07:41:52.286Z,-1.19
2022-12-14T07:44:23.988Z,-1.15
2022-12-14T07:46:54.221Z,-1.14
2022-12-14T07:49:23.247Z,-1.10
2022-12-14T07:51:53.193Z,-1.09
2022-12-14T07:54:23.519Z,-1.08
2022-12-14T07:56:52.232Z,-1.08
2022-12-14T07:59:20.828Z,-1.06
2022-12-14T08:01:49.366Z,-1.05
2022-12-14T08:04:20.265Z,-1.05
2022-12-14T08:06:49.747Z,-1.01
2022-12-14T08:09:20.380Z,-1.01
2022-12-14T08:11:50.492Z,-0.95
2022-12-14T08:14:20.352Z,-0.94
2022-12-14T08:16:50.575Z,-0.95
2022-12-14T08:19:20.528Z,-0.95
2022-12-14T08:21:49.157Z,-0.95
2022-12-14T08:24:18.501Z,-0.93
2022-12-14T08:26:49.128Z,-0.94
2022-12-14T08:29:21.721Z,-0.92
2022-12-14T08:31:50.497Z,-0.89
2022-12-14T08:34:23.060Z,-0.88
2022-12-14T08:36:51.853Z,-0.86
2022-12-14T08:39:20.537Z,-0.84
2022-12-14T08:41:49.300Z,-0.82
2022-12-14T08:44:19.342Z,-0.81
2022-12-14T08:46:48.146Z,-0.81
2022-12-14T08:49:16.937Z,-0.77
2022-12-14T08:51:45.493Z,-0.72
2022-12-14T08:54:14.002Z,-0.67
2022-12-14T08:56:42.729Z,-0.64
2022-12-14T08:59:24.714Z,-0.63
2022-12-14T09:02:00.584Z,-0.64
2022-12-14T09:04:29.445Z,-0.61
2022-12-14T09:06:58.129Z,-0.57
2022-12-14T09:09:27.640Z,-0.54
2022-12-14T09:11:56.190Z,-0.53
2022-12-14T09:14:24.720Z,-0.51
2022-12-14T09:16:53.198Z,-0.49
2022-12-14T09:19:23.223Z,-0.47
2022-12-14T09:21:51.859Z,-0.45
2022-12-14T09:24:21.529Z,-0.38
2022-12-14T09:26:50.544Z,-0.35
2022-12-14T09:29:20.048Z,-0.31
2022-12-14T09:31:48.657Z,-0.31
2022-12-14T09:34:17.050Z,-0.32
2022-12-14T09:36:47.140Z,-0.31
2022-12-14T09:39:15.761Z,-0.30
2022-12-14T09:41:56.357Z,-0.30
2022-12-14T09:44:32.879Z,-0.33
2022-12-14T09:47:04.120Z,-0.31
2022-12-14T09:49:34.008Z,-0.29
2022-12-14T09:52:05.923Z,-0.29
2022-12-14T09:54:36.415Z,-0.28
2022-12-14T09:57:10.308Z,-0.26
2022-12-14T09:59:39.077Z,-0.26
2022-12-14T10:02:30.932Z,-0.27
2022-12-14T10:05:05.789Z,-0.23
2022-12-14T10:07:40.437Z,-0.21
2022-12-14T10:10:16.030Z,-0.20
2022-12-14T10:12:50.900Z,-0.19
2022-12-14T10:15:25.997Z,-0.17
2022-12-14T10:18:05.555Z,-0.13
2022-12-14T10:20:38.589Z,-0.12
2022-12-14T10:23:16.952Z,-0.11
2022-12-14T10:25:50.860Z,-0.10
2022-12-14T10:28:20.628Z,-0.08
2022-12-14T10:30:50.338Z,-0.09
2022-12-14T10:33:22.206Z,-0.08
2022-12-14T10:35:52.799Z,-0.07
2022-12-14T10:38:27.456Z,-0.03
2022-12-14T10:41:01.408Z,0.00
2022-12-14T10:43:40.656Z,0.04
2022-12-14T10:46:16.510Z,0.09
2022-12-14T10:48:49.032Z,0.15
2022-12-14T10:51:20.012Z,0.14
2022-12-14T10:53:53.367Z,0.15
2022-12-14T10:56:24.501Z,0.19
2022-12-14T10:59:04.314Z,0.22
2022-12-14T11:01:32.847Z,0.24
2022-12-14T11:04:01.440Z,0.25
2022-12-14T11:06:30.094Z,0.24
2022-12-14T11:08:59.763Z,0.26
2022-12-14T11:11:29.392Z,0.28
2022-12-14T11:14:08.013Z,0.33
2022-12-14T11:16:37.712Z,0.39
2022-12-14T11:19:07.749Z,0.40
2022-12-14T11:21:37.439Z,0.42
2022-12-14T11:24:07.860Z,0.43
2022-12-14T11:26:38.450Z,0.45
2022-12-14T11:29:08.461Z,0.47
2022-12-14T11:31:39.173Z,0.51
2022-12-14T11:34:08.980Z,0.54
2022-12-14T11:36:38.319Z,0.53
2022-12-14T11:39:21.040Z,0.55
2022-12-14T11:41:50.312Z,0.57
2022-12-14T11:44:26.538Z,0.59
2022-12-14T11:46:56.606Z,0.59
2022-12-14T11:49:27.105Z,0.59
2022-12-14T11:51:56.546Z,0.61
2022-12-14T11:54:26.281Z,0.62
2022-12-14T11:56:58.550Z,0.64
2022-12-14T11:59:29.770Z,0.65
2022-12-14T12:01:58.209Z,0.67
2022-12-14T12:04:26.651Z,0.67
2022-12-14T12:06:57.894Z,0.69
2022-12-14T12:09:34.537Z,0.69
2022-12-14T12:12:03.459Z,0.72
2022-12-14T12:14:36.439Z,0.72
2022-12-14T12:17:18.421Z,0.71
2022-12-14T12:19:48.279Z,0.76
2022-12-14T12:22:17.262Z,0.77
2022-12-14T12:25:16.797Z,0.77
2022-12-14T12:27:42.676Z,0.80
2022-12-14T12:30:20.933Z,0.85
2022-12-14T12:32:52.734Z,0.89
2022-12-14T12:35:24.134Z,0.94
2022-12-14T12:37:54.815Z,0.93
2022-12-14T12:40:27.076Z,0.95
2022-12-14T12:42:59.672Z,0.95
2022-12-14T12:45:32.519Z,0.96
2022-12-14T12:48:04.233Z,1.00
2022-12-14T12:50:36.244Z,0.99
2022-12-14T12:53:07.612Z,0.98
2022-12-14T12:55:39.503Z,1.00
2022-12-14T12:58:10.493Z,1.02
2022-12-14T13:00:39.579Z,1.03
2022-12-14T13:03:11.347Z,1.06
2022-12-14T13:05:46.721Z,1.09
2022-12-14T13:08:19.536Z,1.09
2022-12-14T13:13:44.296Z,1.07
2022-12-14T13:16:16.037Z,1.08
2022-12-14T13:19:01.858Z,1.11
2022-12-14T13:21:38.803Z,1.12
2022-12-14T13:24:08.632Z,1.14
2022-12-14T13:26:58.110Z,1.15
2022-12-14T13:29:45.025Z,1.16
2022-12-14T13:32:21.642Z,1.14
2022-12-14T13:34:55.995Z,1.13
2022-12-14T13:37:34.576Z,1.10
2022-12-14T13:40:13.811Z,1.07
2022-12-14T13:42:52.064Z,1.08
2022-12-14T13:45:22.076Z,1.10
2022-12-14T13:47:54.042Z,1.10
2022-12-14T13:50:35.717Z,1.10
2022-12-14T13:53:06.703Z,1.11
2022-12-14T13:55:35.994Z,1.13
2022-12-14T13:58:11.624Z,1.16
2022-12-14T14:00:55.096Z,1.15
2022-12-14T16:09:32.672Z,1.05
2022-12-14T16:12:06.565Z,1.09
2022-12-14T16:14:44.536Z,1.10
2022-12-14T16:17:15.714Z,1.11
2022-12-14T16:19:59.525Z,1.16
2022-12-14T16:22:33.320Z,1.18
2022-12-14T16:25:19.241Z,1.22
2022-12-14T16:27:50.531Z,1.22
2022-12-14T16:30:26.680Z,1.19
2022-12-14T16:33:07.825Z,0.97
2022-12-14T16:35:39.364Z,0.99
2022-12-14T16:38:14.657Z,0.89
2022-12-14T16:40:55.454Z,0.86
2022-12-14T16:43:34.905Z,0.80
2022-12-14T16:46:22.050Z,0.73
2022-12-14T16:49:16.415Z,0.74
2022-12-14T16:52:06.422Z,0.71
2022-12-14T16:54:35.641Z,0.68
2022-12-14T16:57:09.454Z,0.64
2022-12-14T16:59:43.574Z,0.67
2022-12-14T17:02:29.664Z,0.71
2022-12-14T17:05:00.149Z,0.76
2022-12-14T17:07:31.555Z,0.74
2022-12-14T17:10:00.442Z,0.70
2022-12-14T17:12:30.623Z,0.68
2022-12-14T17:15:00.164Z,0.61
2022-12-14T17:17:33.901Z,0.65
2022-12-14T17:20:05.857Z,0.61
2022-12-14T17:22:38.204Z,0.58
2022-12-14T17:25:07.718Z,0.34
2022-12-14T17:27:37.891Z,0.56
2022-12-14T17:30:08.932Z,0.54
2022-12-14T17:32:37.753Z,0.51
2022-12-14T17:35:09.553Z,0.52
2022-12-14T17:37:38.251Z,0.59
2022-12-14T17:40:07.825Z,0.63
2022-12-14T17:42:39.411Z,0.63
2022-12-14T17:45:19.053Z,0.65
2022-12-14T17:47:47.850Z,0.68
2022-12-14T17:50:18.176Z,0.68
2022-12-14T17:52:51.447Z,0.67
2022-12-14T17:55:22.514Z,0.70
2022-12-14T17:57:53.073Z,0.66
2022-12-14T18:00:34.159Z,0.67
2022-12-14T18:03:04.778Z,0.60
2022-12-14T18:05:34.129Z,0.69
2022-12-14T18:08:02.835Z,0.69
2022-12-14T18:10:32.130Z,0.70
2022-12-14T18:13:03.955Z,0.72
2022-12-14T18:15:39.017Z,0.70
2022-12-14T18:18:08.272Z,0.52
2022-12-14T18:20:44.793Z,0.52
2022-12-14T18:23:19.614Z,0.55
2022-12-14T18:25:50.215Z,0.58
2022-12-14T18:28:21.211Z,0.64
2022-12-14T18:30:52.498Z,0.63
2022-12-14T18:33:23.036Z,0.62
2022-12-14T18:35:52.657Z,0.57
2022-12-14T18:38:23.184Z,0.52
2022-12-14T18:40:54.474Z,0.52
2022-12-14T18:43:26.386Z,0.50
2022-12-14T18:45:57.086Z,0.49
2022-12-14T18:48:26.551Z,0.50
2022-12-14T18:50:56.422Z,0.48
2022-12-14T18:53:27.394Z,0.49
2022-12-14T18:55:56.511Z,0.50
2022-12-14T18:58:28.562Z,0.25
2022-12-14T19:00:59.837Z,0.57
2022-12-14T19:03:31.107Z,0.42
2022-12-14T19:06:42.149Z,0.64
2022-12-14T19:08:58.397Z,0.65
2022-12-14T19:11:31.801Z,0.65
2022-12-14T19:14:02.995Z,0.66
2022-12-14T19:16:32.388Z,0.69
2022-12-14T19:19:01.448Z,0.70
2022-12-14T19:21:31.960Z,0.68
2022-12-14T19:24:01.548Z,0.64
2022-12-14T19:26:32.498Z,0.66
2022-12-14T19:29:02.857Z,0.65
2022-12-14T19:31:31.723Z,0.66
2022-12-14T19:34:02.260Z,0.52
2022-12-14T19:36:31.356Z,0.56
2022-12-14T19:39:00.706Z,0.40
2022-12-14T19:41:29.810Z,0.54
2022-12-14T19:43:58.837Z,0.52
2022-12-14T19:46:29.624Z,0.50
2022-12-14T19:48:59.889Z,0.48
2022-12-14T19:51:28.572Z,0.44
2022-12-14T19:53:57.159Z,0.40
2022-12-14T19:56:25.792Z,0.36
2022-12-14T19:58:58.149Z,0.33
2022-12-14T20:01:32.764Z,0.27
2022-12-14T20:04:01.896Z,0.26
2022-12-14T20:06:30.750Z,-0.07
2022-12-14T20:09:00.000Z,0.23
2022-12-14T20:11:29.319Z,0.23
2022-12-14T20:14:03.135Z,0.25
2022-12-14T20:16:33.830Z,0.28
2022-12-14T20:19:02.534Z,0.32
2022-12-14T20:21:31.160Z,0.38
2022-12-14T20:24:00.380Z,0.45
2022-12-14T20:26:29.740Z,0.48
2022-12-14T20:29:01.127Z,0.48
2022-12-14T20:31:29.913Z,0.46
2022-12-14T20:34:01.907Z,0.46
2022-12-14T20:36:32.591Z,0.37
2022-12-14T20:39:02.743Z,0.47
2022-12-14T20:41:32.020Z,0.47
2022-12-14T20:44:02.148Z,0.49
2022-12-14T20:46:33.342Z,0.49
2022-12-14T20:49:06.150Z,0.50
2022-12-14T20:51:37.629Z,0.45
2022-12-14T20:54:08.242Z,0.49
2022-12-14T20:56:37.385Z,0.50
2022-12-14T20:59:06.692Z,0.49
2022-12-14T21:01:36.874Z,0.47
2022-12-14T21:04:07.412Z,0.44
2022-12-14T21:06:39.313Z,0.44
2022-12-14T21:09:11.934Z,0.42
2022-12-14T21:11:55.253Z,0.45
2022-12-14T21:14:25.892Z,0.42
2022-12-14T21:16:55.004Z,0.43
2022-12-14T21:19:24.973Z,0.43
2022-12-14T21:21:55.534Z,0.42
2022-12-14T21:25:00.403Z,0.43
2022-12-14T21:27:20.683Z,0.44
2022-12-14T21:29:50.494Z,0.44
2022-12-14T21:32:20.440Z,0.45
2022-12-14T21:34:50.914Z,0.44
2022-12-14T21:37:20.541Z,0.41
2022-12-14T21:39:54.218Z,0.40
2022-12-14T21:42:24.080Z,0.43
2022-12-14T21:44:55.492Z,0.46
2022-12-14T21:47:26.915Z,0.45
2022-12-14T21:49:57.800Z,0.43
2022-12-14T21:52:28.090Z,0.43
2022-12-14T21:54:58.722Z,0.45
2022-12-14T21:57:37.250Z,0.49
2022-12-14T22:00:07.346Z,0.47
2022-12-14T22:02:43.033Z,0.46
2022-12-14T22:05:13.653Z,0.47
2022-12-14T22:07:42.346Z,0.42
2022-12-14T22:10:11.224Z,0.45
2022-12-14T22:12:40.596Z,0.46
2022-12-14T22:15:10.383Z,0.48
2022-12-14T22:17:39.072Z,0.48
2022-12-14T22:20:08.795Z,0.47
2022-12-14T22:22:40.045Z,0.46
2022-12-14T22:25:09.894Z,0.47
2022-12-14T22:27:38.128Z,0.46
2022-12-14T22:30:09.003Z,0.38
2022-12-14T22:32:37.648Z,0.48
2022-12-14T22:35:09.785Z,0.46
2022-12-14T22:37:41.132Z,0.46
2022-12-14T22:40:12.783Z,0.47
2022-12-14T22:42:42.033Z,0.46
2022-12-14T22:45:11.851Z,0.46
2022-12-14T22:47:40.411Z,0.42
2022-12-14T22:50:10.421Z,0.37
2022-12-14T22:52:40.683Z,0.46
2022-12-14T22:55:10.212Z,0.46
2022-12-14T22:57:42.092Z,0.46
2022-12-14T23:00:16.136Z,0.48
2022-12-14T23:02:48.599Z,0.50
2022-12-14T23:05:18.714Z,0.51
2022-12-14T23:07:48.821Z,0.51
2022-12-14T23:10:28.515Z,0.54
2022-12-14T23:13:07.114Z,0.56
2022-12-14T23:15:46.514Z,0.57
2022-12-14T23:18:25.332Z,0.55
2022-12-14T23:21:04.296Z,0.50
2022-12-14T23:23:44.252Z,0.57
2022-12-14T23:26:22.995Z,0.57
2022-12-14T23:29:00.693Z,0.57
2022-12-14T23:31:39.212Z,0.55
2022-12-14T23:34:17.662Z,0.58
2022-12-14T23:36:56.273Z,0.59
2022-12-14T23:39:36.572Z,0.59
2022-12-14T23:42:15.325Z,0.58
2022-12-14T23:44:54.142Z,0.57
2022-12-14T23:47:31.750Z,0.54
2022-12-14T23:50:10.583Z,0.51
2022-12-14T23:52:49.132Z,0.52
2022-12-14T23:55:29.172Z,0.53
2022-12-14T23:58:08.920Z,0.45
